IBE6DD LEBL-LFMN
Flight info
| Callsign | IBE6DD |
|---|---|
| Flight time | N/A |
| Altitude | 30000 |
| Route | DALIN L16 BGR L110 DIBER DCT SOSUR DCT SOFFY DCT MRM DCT ABLAK |
| Aircraft | A343/H-SDE2E3FGHIJ4J5M1RWXY/LB1D1 |
Departure
| Time | 2026-04-30 17:53 |
|---|---|
| Airport | Josep Tarradellas Barcelona-El Prat Airport (LEBL) |
Arrival
| Time | N/A |
|---|---|
| Airport | Nice-Côte d'Azur Airport (LFMN) |
| Time | Latitude | Longitude | Altitude | Speed | Heading |
|---|---|---|---|---|---|
| 2026-04-30 17:39 | 41.29110 | 2.07151 | 7 ft | 2 kts | 124° |
| 2026-04-30 17:41 | 41.29115 | 2.07054 | 9 ft | 0 kts | 63° |
| 2026-04-30 17:44 | 41.29137 | 2.07087 | 9 ft | 7 kts | 36° |
| 2026-04-30 17:46 | 41.29422 | 2.07800 | 5 ft | 23 kts | 65° |
| 2026-04-30 17:47 | 41.29498 | 2.08310 | 5 ft | 12 kts | 157° |
| 2026-04-30 17:48 | 41.28970 | 2.08343 | 6 ft | 25 kts | 198° |
| 2026-04-30 17:48 | 41.28593 | 2.07944 | 6 ft | 23 kts | 246° |
| 2026-04-30 17:49 | 41.28336 | 2.07346 | 6 ft | 0 kts | 171° |
| 2026-04-30 17:50 | 41.28244 | 2.07475 | 11 ft | 8 kts | 75° |
| 2026-04-30 17:51 | 41.28267 | 2.07554 | 11 ft | 0 kts | 68° |
| 2026-04-30 17:53 | 41.29687 | 2.13136 | 1984 ft | 231 kts | 89° |
| 2026-04-30 17:54 | 41.28633 | 2.22141 | 4751 ft | 258 kts | 96° |
| 2026-04-30 17:55 | 41.27608 | 2.31749 | 6601 ft | 271 kts | 99° |
| 2026-04-30 17:56 | 41.26586 | 2.41153 | 9839 ft | 291 kts | 99° |
| 2026-04-30 17:57 | 41.25636 | 2.49749 | 11493 ft | 339 kts | 99° |
| 2026-04-30 17:58 | 41.27373 | 2.59156 | 13132 ft | 380 kts | 56° |
| 2026-04-30 17:59 | 41.33940 | 2.70947 | 15518 ft | 410 kts | 51° |
| 2026-04-30 18:00 | 41.40995 | 2.83272 | 18309 ft | 427 kts | 52° |
| 2026-04-30 18:00 | 41.46385 | 2.92898 | 20060 ft | 438 kts | 52° |
| 2026-04-30 18:01 | 41.50038 | 2.99494 | 21168 ft | 446 kts | 52° |
| 2026-04-30 18:02 | 41.55612 | 3.09632 | 22808 ft | 457 kts | 52° |
| 2026-04-30 18:02 | 41.61297 | 3.20045 | 24291 ft | 468 kts | 52° |